createdAt,value
2019-02-28T00:00:18.785Z,12.70
2019-02-28T00:01:32.778Z,10.23
2019-02-28T00:02:35.314Z,8.68
2019-02-28T00:03:38.077Z,10.75
2019-02-28T00:04:40.728Z,6.70
2019-02-28T00:05:43.382Z,4.00
2019-02-28T00:06:46.199Z,5.03
2019-02-28T00:07:49.636Z,6.87
2019-02-28T00:08:53.758Z,5.37
2019-02-28T00:09:57.478Z,6.30
2019-02-28T00:11:01.993Z,9.00
2019-02-28T00:12:05.808Z,8.35
2019-02-28T00:13:10.162Z,7.15
2019-02-28T00:14:12.785Z,7.28
2019-02-28T00:15:15.422Z,5.97
2019-02-28T00:16:18.049Z,5.00
2019-02-28T00:17:20.792Z,7.28
2019-02-28T00:18:23.414Z,6.12
2019-02-28T00:19:27.068Z,7.35
2019-02-28T00:20:31.987Z,5.83
2019-02-28T00:21:34.142Z,6.17
2019-02-28T00:22:36.779Z,4.72
2019-02-28T00:23:39.680Z,7.95
2019-02-28T00:24:42.356Z,6.08
2019-02-28T00:25:44.933Z,7.12
2019-02-28T00:26:49.256Z,6.78
2019-02-28T00:27:52.663Z,6.53
2019-02-28T00:28:57.055Z,8.15
2019-02-28T00:30:00.950Z,7.40
2019-02-28T00:31:03.901Z,8.20
2019-02-28T00:32:06.498Z,9.40
2019-02-28T00:33:11.027Z,8.40
2019-02-28T00:34:13.959Z,6.22
2019-02-28T00:35:16.805Z,8.23
2019-02-28T00:36:19.833Z,9.80
2019-02-28T00:37:24.697Z,6.35
2019-02-28T00:38:29.623Z,8.18
2019-02-28T00:39:34.821Z,8.90
2019-02-28T00:40:38.500Z,8.15
2019-02-28T00:41:44.469Z,7.05
2019-02-28T00:42:48.077Z,7.22
2019-02-28T00:43:50.210Z,8.95
2019-02-28T00:44:52.909Z,9.93
2019-02-28T00:45:55.598Z,8.43
2019-02-28T00:46:58.291Z,9.05
2019-02-28T00:48:00.792Z,10.98
2019-02-28T00:49:03.316Z,9.13
2019-02-28T00:50:06.038Z,12.18
2019-02-28T00:51:08.663Z,8.38
2019-02-28T00:52:11.292Z,8.08
2019-02-28T00:53:14.082Z,12.53
2019-02-28T00:54:16.630Z,9.33
2019-02-28T00:55:19.305Z,9.05
2019-02-28T00:56:21.810Z,11.03
2019-02-28T00:57:24.697Z,9.33
2019-02-28T00:58:28.987Z,12.28
2019-02-28T00:59:32.435Z,7.28
2019-02-28T01:00:37.099Z,10.43
2019-02-28T01:01:39.673Z,9.18
2019-02-28T01:02:42.231Z,11.97
2019-02-28T01:03:45.614Z,9.93
2019-02-28T01:04:48.141Z,11.15
2019-02-28T01:05:50.771Z,10.75
2019-02-28T01:06:53.476Z,12.55
2019-02-28T01:07:56.145Z,10.45
2019-02-28T01:08:58.842Z,13.53
2019-02-28T01:10:04.575Z,9.93
2019-02-28T01:11:06.019Z,11.10
2019-02-28T01:12:08.702Z,13.22
2019-02-28T01:13:11.249Z,13.45
2019-02-28T01:14:13.916Z,15.95
2019-02-28T01:15:16.735Z,11.20
2019-02-28T01:16:20.071Z,18.75
2019-02-28T01:17:24.113Z,14.07
2019-02-28T01:18:27.269Z,15.10
2019-02-28T01:19:31.590Z,19.73
2019-02-28T01:20:34.114Z,10.70
2019-02-28T01:21:37.978Z,10.45
2019-02-28T01:22:40.530Z,12.85
2019-02-28T01:23:44.861Z,16.70
2019-02-28T01:24:47.418Z,14.25
2019-02-28T01:25:50.161Z,17.65
2019-02-28T01:26:52.725Z,14.93
2019-02-28T01:27:55.335Z,13.32
2019-02-28T01:29:01.368Z,13.85
2019-02-28T01:30:02.739Z,15.75
2019-02-28T01:31:05.607Z,17.40
2019-02-28T01:32:08.154Z,16.12
2019-02-28T01:33:10.741Z,15.95
2019-02-28T01:34:13.251Z,12.88
2019-02-28T01:35:15.761Z,17.90
2019-02-28T01:36:18.360Z,15.38
2019-02-28T01:37:22.705Z,14.68
2019-02-28T01:38:25.292Z,11.90
2019-02-28T01:39:30.734Z,14.00
2019-02-28T01:40:35.189Z,18.57
2019-02-28T01:41:38.071Z,15.32
2019-02-28T01:42:40.731Z,18.05
2019-02-28T01:43:43.493Z,14.03
2019-02-28T01:44:48.297Z,15.55
2019-02-28T01:45:50.917Z,16.82
2019-02-28T01:46:53.362Z,13.15
2019-02-28T01:47:56.014Z,16.85
2019-02-28T01:48:58.590Z,15.20
2019-02-28T01:50:02.136Z,15.43
2019-02-28T01:51:04.958Z,18.80
2019-02-28T01:52:10.092Z,19.82
2019-02-28T01:53:13.345Z,15.43
2019-02-28T01:54:16.039Z,19.48
2019-02-28T01:55:18.567Z,19.90
2019-02-28T01:56:21.203Z,18.52
2019-02-28T01:57:23.916Z,15.63
2019-02-28T01:58:26.473Z,16.73
2019-02-28T01:59:29.001Z,19.62
2019-02-28T02:00:31.665Z,15.58
2019-02-28T02:01:34.149Z,16.57
2019-02-28T02:02:38.045Z,18.70
2019-02-28T02:03:44.025Z,22.00
2019-02-28T02:04:46.703Z,18.90
2019-02-28T02:05:51.680Z,16.77
2019-02-28T02:06:53.906Z,17.87
2019-02-28T02:07:58.202Z,14.33
2019-02-28T02:09:00.847Z,20.30
2019-02-28T02:10:08.676Z,18.37
2019-02-28T02:11:11.275Z,17.05
2019-02-28T02:12:14.006Z,20.88
2019-02-28T02:13:16.879Z,15.32
2019-02-28T02:14:19.404Z,17.23
2019-02-28T02:15:22.269Z,16.80
2019-02-28T02:16:27.751Z,19.57
2019-02-28T02:17:29.337Z,21.05
2019-02-28T02:18:32.079Z,19.40
2019-02-28T02:19:34.602Z,17.57
2019-02-28T02:20:37.403Z,16.95
2019-02-28T02:21:40.213Z,26.40
2019-02-28T02:22:44.448Z,16.93
2019-02-28T02:23:49.594Z,20.43
2019-02-28T02:24:51.661Z,15.95
2019-02-28T02:25:54.596Z,17.75
2019-02-28T02:26:57.233Z,25.12
2019-02-28T02:27:59.949Z,19.55
2019-02-28T02:29:02.909Z,20.37
2019-02-28T02:30:13.304Z,19.23
2019-02-28T02:31:14.437Z,21.75
2019-02-28T02:32:17.201Z,21.97
2019-02-28T02:33:19.715Z,19.52
2019-02-28T02:34:24.269Z,18.25
2019-02-28T02:35:27.027Z,25.02
2019-02-28T02:36:29.566Z,15.95
2019-02-28T02:37:32.116Z,20.12
2019-02-28T02:38:40.138Z,21.57
2019-02-28T02:39:39.240Z,21.30
2019-02-28T02:40:41.983Z,23.42
2019-02-28T02:41:44.690Z,26.75
2019-02-28T02:42:49.749Z,18.60
2019-02-28T02:43:55.063Z,21.68
2019-02-28T02:44:56.830Z,20.55
2019-02-28T02:46:00.572Z,21.07
2019-02-28T02:47:03.211Z,21.82
2019-02-28T02:48:06.819Z,17.95
2019-02-28T02:49:18.297Z,22.42
2019-02-28T02:50:16.415Z,18.77
2019-02-28T02:51:19.023Z,20.60
2019-02-28T02:52:25.877Z,23.92
2019-02-28T02:53:26.574Z,19.95
2019-02-28T02:54:29.281Z,21.82
2019-02-28T02:55:32.268Z,19.35
2019-02-28T02:56:40.680Z,22.25
2019-02-28T02:57:39.561Z,22.30
2019-02-28T02:58:42.347Z,24.72
2019-02-28T02:59:45.029Z,23.77
2019-02-28T03:00:51.100Z,23.38
2019-02-28T03:01:56.157Z,23.87
2019-02-28T03:02:57.082Z,26.00
2019-02-28T03:03:59.695Z,19.25
2019-02-28T03:05:02.334Z,19.95
2019-02-28T03:06:12.227Z,21.85
2019-02-28T03:07:09.401Z,22.52
2019-02-28T03:08:11.990Z,26.35
2019-02-28T03:09:14.598Z,15.58
2019-02-28T03:10:19.686Z,22.67
2019-02-28T03:11:24.834Z,21.55
2019-02-28T03:12:31.037Z,15.63
2019-02-28T03:13:31.986Z,21.00
2019-02-28T03:14:34.672Z,23.35
2019-02-28T03:15:37.209Z,26.20
2019-02-28T03:16:40.024Z,20.88
2019-02-28T03:17:47.203Z,22.90
2019-02-28T03:18:48.548Z,19.30
2019-02-28T03:19:51.547Z,23.60
2019-02-28T03:20:54.112Z,21.90
2019-02-28T03:21:56.837Z,23.57
2019-02-28T03:23:02.160Z,20.52
2019-02-28T03:24:04.214Z,22.90
2019-02-28T03:25:07.966Z,21.33
2019-02-28T03:26:10.479Z,19.20
2019-02-28T03:27:18.721Z,21.05
2019-02-28T03:28:17.743Z,20.35
2019-02-28T03:29:20.500Z,25.77
2019-02-28T03:30:31.265Z,22.93
2019-02-28T03:31:27.695Z,19.45
2019-02-28T03:32:39.590Z,27.77
2019-02-28T03:33:34.833Z,18.17
2019-02-28T03:34:37.650Z,25.23
2019-02-28T03:35:43.709Z,22.32
2019-02-28T03:36:55.358Z,26.23
2019-02-28T03:37:49.050Z,27.00
2019-02-28T03:38:51.580Z,20.62
2019-02-28T03:40:02.710Z,20.12
2019-02-28T03:40:59.061Z,22.02
2019-02-28T03:42:02.964Z,29.30
2019-02-28T03:43:06.736Z,21.57
2019-02-28T03:44:09.951Z,25.57
2019-02-28T03:45:13.486Z,23.67
2019-02-28T03:46:16.043Z,22.58
2019-02-28T03:47:22.468Z,23.90
2019-02-28T03:48:23.249Z,27.13
2019-02-28T03:49:26.029Z,26.33
2019-02-28T03:50:28.869Z,23.90
2019-02-28T03:51:31.699Z,26.48
2019-02-28T03:52:42.274Z,22.95
2019-02-28T03:53:39.196Z,21.55
2019-02-28T03:54:41.751Z,25.50
2019-02-28T03:55:44.373Z,25.32
2019-02-28T03:56:51.369Z,19.87
2019-02-28T03:57:51.300Z,22.22
2019-02-28T03:58:54.219Z,27.02
2019-02-28T03:59:57.938Z,27.20
2019-02-28T04:01:00.615Z,22.70
2019-02-28T04:02:03.423Z,26.97
2019-02-28T04:03:05.953Z,25.72
2019-02-28T04:04:12.235Z,27.65
2019-02-28T04:05:15.072Z,31.52
2019-02-28T04:06:18.903Z,25.12
2019-02-28T04:07:23.226Z,28.62
2019-02-28T04:08:29.368Z,26.07
2019-02-28T04:09:30.428Z,24.63
2019-02-28T04:10:34.380Z,27.17
2019-02-28T04:11:37.412Z,23.02
2019-02-28T04:12:45.078Z,21.15
2019-02-28T04:13:44.755Z,25.60
2019-02-28T04:14:47.436Z,22.37
2019-02-28T04:16:07.562Z,23.22
2019-02-28T04:16:56.300Z,26.23
2019-02-28T04:18:06.502Z,22.20
2019-02-28T04:19:03.854Z,24.43
2019-02-28T04:20:07.059Z,25.80
2019-02-28T04:21:10.712Z,28.73
2019-02-28T04:22:14.307Z,29.37
2019-02-28T04:23:16.980Z,27.52
2019-02-28T04:24:19.538Z,18.35
2019-02-28T04:25:24.166Z,29.35
2019-02-28T04:26:29.762Z,24.63
2019-02-28T04:27:31.126Z,23.25
2019-02-28T04:28:33.780Z,26.85
2019-02-28T04:29:36.317Z,25.05
2019-02-28T04:30:42.640Z,24.00
2019-02-28T04:31:43.414Z,29.05
2019-02-28T04:32:46.049Z,25.50
2019-02-28T04:33:48.573Z,25.35
2019-02-28T04:34:51.457Z,24.98
2019-02-28T04:35:56.924Z,28.47
2019-02-28T04:36:58.791Z,25.52
2019-02-28T04:38:01.416Z,29.50
2019-02-28T04:39:06.041Z,28.02
2019-02-28T04:40:09.003Z,27.82
2019-02-28T04:41:11.573Z,30.48
2019-02-28T04:42:14.211Z,24.05
2019-02-28T04:43:17.836Z,26.77
2019-02-28T04:44:20.531Z,26.07
2019-02-28T04:45:23.399Z,25.50
2019-02-28T04:46:28.399Z,26.87
2019-02-28T04:47:32.444Z,26.95
2019-02-28T04:48:36.413Z,28.75
2019-02-28T04:49:38.939Z,26.73
2019-02-28T04:50:41.638Z,26.85
2019-02-28T04:51:44.563Z,25.37
2019-02-28T04:52:48.293Z,24.87
2019-02-28T04:53:53.158Z,25.60
2019-02-28T04:54:55.596Z,28.77
2019-02-28T04:55:58.357Z,24.50
2019-02-28T04:57:00.972Z,24.85
2019-02-28T04:58:03.754Z,24.90
2019-02-28T04:59:06.301Z,26.97
2019-02-28T05:00:09.317Z,28.60
2019-02-28T05:01:12.359Z,28.57
2019-02-28T05:02:19.676Z,26.45
2019-02-28T05:03:20.633Z,24.52
2019-02-28T05:04:23.253Z,28.73
2019-02-28T05:05:27.641Z,27.32
2019-02-28T05:06:30.174Z,28.50
2019-02-28T05:07:34.492Z,27.37
2019-02-28T05:08:38.950Z,25.97
2019-02-28T05:09:41.504Z,24.40
2019-02-28T05:10:44.211Z,25.35
2019-02-28T05:11:46.856Z,27.13
2019-02-28T05:12:49.583Z,28.80
2019-02-28T05:13:52.312Z,21.65
2019-02-28T05:14:55.322Z,28.15
2019-02-28T05:15:59.339Z,24.50
2019-02-28T05:17:02.251Z,24.37
2019-02-28T05:18:05.037Z,27.93
2019-02-28T05:19:07.715Z,28.47
2019-02-28T05:20:11.909Z,23.80
2019-02-28T05:21:16.561Z,27.02
2019-02-28T05:22:19.579Z,33.53
2019-02-28T05:23:23.353Z,26.15
2019-02-28T05:24:25.845Z,29.42
2019-02-28T05:25:28.556Z,25.40
2019-02-28T05:26:31.088Z,35.23
2019-02-28T05:27:35.546Z,30.05
2019-02-28T05:28:41.199Z,25.43
2019-02-28T05:29:44.730Z,29.50
2019-02-28T05:30:53.683Z,29.18
2019-02-28T05:31:58.075Z,26.68
2019-02-28T05:33:00.357Z,29.25
2019-02-28T05:34:03.102Z,27.62
2019-02-28T05:35:05.983Z,31.05
2019-02-28T05:36:08.511Z,24.20
2019-02-28T05:37:12.598Z,30.02
2019-02-28T05:38:20.705Z,26.45
2019-02-28T05:39:20.424Z,32.95
2019-02-28T05:40:22.999Z,33.60
2019-02-28T05:41:25.543Z,30.00
2019-02-28T05:42:28.281Z,25.60
2019-02-28T05:43:32.265Z,23.57
2019-02-28T05:44:37.437Z,27.00
2019-02-28T05:45:40.038Z,26.80
2019-02-28T05:46:42.676Z,31.48
2019-02-28T05:47:47.241Z,24.72
2019-02-28T05:48:50.985Z,32.30
2019-02-28T05:49:54.846Z,28.85
2019-02-28T05:50:57.504Z,26.00
2019-02-28T05:52:00.332Z,30.35
2019-02-28T05:53:03.108Z,28.92
2019-02-28T05:54:05.752Z,23.47
2019-02-28T05:55:08.659Z,26.68
2019-02-28T05:56:11.327Z,27.62
2019-02-28T05:57:14.073Z,32.67
2019-02-28T05:58:18.375Z,29.48
2019-02-28T05:59:26.143Z,26.12
2019-02-28T06:00:25.750Z,31.12
2019-02-28T06:01:28.403Z,30.70
2019-02-28T06:02:30.941Z,30.37
2019-02-28T06:03:33.541Z,28.27
2019-02-28T06:04:37.181Z,26.48
2019-02-28T06:05:43.321Z,31.07
2019-02-28T06:06:46.411Z,27.82
2019-02-28T06:07:49.373Z,29.72
2019-02-28T06:08:52.028Z,23.57
2019-02-28T06:09:56.779Z,30.60
2019-02-28T06:11:01.414Z,26.12
2019-02-28T06:12:06.569Z,29.40
2019-02-28T06:13:09.129Z,35.25
2019-02-28T06:14:12.810Z,24.20
2019-02-28T06:15:15.990Z,28.23
2019-02-28T06:16:20.332Z,27.93
2019-02-28T06:17:23.106Z,25.65
2019-02-28T06:18:26.659Z,27.40
2019-02-28T06:19:30.214Z,34.40
2019-02-28T06:20:32.907Z,25.57
2019-02-28T06:21:35.436Z,24.67
2019-02-28T06:22:38.330Z,29.20
2019-02-28T06:23:41.645Z,29.12
2019-02-28T06:24:45.866Z,27.62
2019-02-28T06:25:48.826Z,30.40
2019-02-28T06:26:51.491Z,32.73
2019-02-28T06:27:54.255Z,28.38
2019-02-28T06:28:56.822Z,27.70
2019-02-28T06:29:59.382Z,30.82
2019-02-28T06:31:02.316Z,27.58
2019-02-28T06:32:05.204Z,26.33
2019-02-28T06:33:08.053Z,27.87
2019-02-28T06:34:10.810Z,27.77
2019-02-28T06:35:16.129Z,30.77
2019-02-28T06:36:17.796Z,26.27
2019-02-28T06:37:20.528Z,32.35
2019-02-28T06:38:23.088Z,29.00
2019-02-28T06:39:26.857Z,24.63
2019-02-28T06:40:33.003Z,26.45
2019-02-28T06:41:34.871Z,26.42
2019-02-28T06:42:37.697Z,22.50
2019-02-28T06:43:40.477Z,27.77
2019-02-28T06:44:44.853Z,35.40
2019-02-28T06:45:47.544Z,30.90
2019-02-28T06:46:50.213Z,29.02
2019-02-28T06:47:52.766Z,32.73
2019-02-28T06:49:01.500Z,24.37
2019-02-28T06:49:59.934Z,28.50
2019-02-28T06:51:02.496Z,32.98
2019-02-28T06:52:05.437Z,28.65
2019-02-28T06:53:08.110Z,28.05
2019-02-28T06:54:10.834Z,31.35
2019-02-28T06:55:17.714Z,31.23
2019-02-28T06:56:22.635Z,30.60
2019-02-28T06:57:26.875Z,32.17
2019-02-28T06:58:30.484Z,30.10
2019-02-28T06:59:36.155Z,32.45
2019-02-28T07:00:38.875Z,27.70
2019-02-28T07:01:41.862Z,27.37
2019-02-28T07:02:46.612Z,28.17
2019-02-28T07:03:53.456Z,29.77
2019-02-28T07:04:53.890Z,28.60
2019-02-28T07:05:57.548Z,29.42
2019-02-28T07:07:00.898Z,30.82
2019-02-28T07:08:04.986Z,27.15
2019-02-28T07:09:07.633Z,32.03
2019-02-28T07:10:12.718Z,25.50
2019-02-28T07:11:15.241Z,25.75
2019-02-28T07:12:17.757Z,36.98
2019-02-28T07:13:20.801Z,31.50
2019-02-28T07:14:25.383Z,27.62
2019-02-28T07:15:28.048Z,28.07
2019-02-28T07:16:34.630Z,28.12
2019-02-28T07:17:35.334Z,25.60
2019-02-28T07:18:39.091Z,25.90
2019-02-28T07:19:41.615Z,30.77
2019-02-28T07:20:44.581Z,25.12
2019-02-28T07:21:47.221Z,28.38
2019-02-28T07:22:54.472Z,30.75
2019-02-28T07:23:54.659Z,34.48
2019-02-28T07:24:59.154Z,29.65
2019-02-28T07:26:01.801Z,25.37
2019-02-28T07:27:04.681Z,31.62
2019-02-28T07:28:07.257Z,27.62
2019-02-28T07:29:11.958Z,31.02
2019-02-28T07:30:18.784Z,25.35
2019-02-28T07:31:21.691Z,30.27
2019-02-28T07:32:26.205Z,33.25
2019-02-28T07:33:29.059Z,36.17
2019-02-28T07:34:31.696Z,27.07
2019-02-28T07:35:36.806Z,29.30
2019-02-28T07:36:41.503Z,32.00
2019-02-28T07:37:43.499Z,32.08
2019-02-28T07:38:46.096Z,28.60
2019-02-28T07:39:48.765Z,31.15
2019-02-28T07:40:51.466Z,31.30
2019-02-28T07:41:54.064Z,37.48
2019-02-28T07:42:56.807Z,29.52
2019-02-28T07:43:59.372Z,30.37
2019-02-28T07:45:02.010Z,33.48
2019-02-28T07:46:07.648Z,30.85
2019-02-28T07:47:09.260Z,37.25
2019-02-28T07:48:11.806Z,30.55
2019-02-28T07:49:14.533Z,32.65
2019-02-28T07:50:17.331Z,33.08
2019-02-28T07:51:22.672Z,33.10
2019-02-28T07:52:24.588Z,27.62
2019-02-28T07:53:29.007Z,29.67
2019-02-28T07:54:31.487Z,29.15
2019-02-28T07:55:34.268Z,28.77
2019-02-28T07:56:42.547Z,29.07
2019-02-28T07:57:41.707Z,29.20
2019-02-28T07:58:44.225Z,31.55
2019-02-28T07:59:46.822Z,35.25
2019-02-28T08:00:52.631Z,30.90
2019-02-28T08:01:55.357Z,23.50
2019-02-28T08:02:57.929Z,28.02
2019-02-28T08:04:00.605Z,29.02
2019-02-28T08:05:03.536Z,28.17
2019-02-28T08:06:06.287Z,31.73
2019-02-28T08:07:11.414Z,27.40
2019-02-28T08:08:13.689Z,31.93
2019-02-28T08:09:27.520Z,30.37
2019-02-28T08:10:30.284Z,33.63
2019-02-28T08:11:32.990Z,32.73
2019-02-28T08:12:35.520Z,26.75
2019-02-28T08:13:38.662Z,24.50
2019-02-28T08:14:43.642Z,29.40
2019-02-28T08:15:46.610Z,31.25
2019-02-28T08:16:49.408Z,33.53
2019-02-28T08:17:52.039Z,30.17
2019-02-28T08:18:54.743Z,31.17
2019-02-28T08:19:58.773Z,26.90
2019-02-28T08:21:01.868Z,31.23
2019-02-28T08:22:04.706Z,27.95
2019-02-28T08:23:07.222Z,24.43
2019-02-28T08:24:09.854Z,30.35
2019-02-28T08:25:12.555Z,25.60
2019-02-28T08:26:18.816Z,26.20
2019-02-28T08:27:21.217Z,28.87
2019-02-28T08:28:26.088Z,32.42
2019-02-28T08:29:28.842Z,28.65
2019-02-28T08:30:31.752Z,34.23
2019-02-28T08:31:34.553Z,28.60
2019-02-28T08:32:42.736Z,31.02
2019-02-28T08:33:41.960Z,28.52
2019-02-28T08:34:46.747Z,26.82
2019-02-28T08:35:50.915Z,27.22
2019-02-28T08:36:53.862Z,38.88
2019-02-28T08:37:57.370Z,28.27
2019-02-28T08:39:00.503Z,25.77
2019-02-28T08:40:03.991Z,28.85
2019-02-28T08:41:06.748Z,30.62
2019-02-28T08:42:09.286Z,26.02
2019-02-28T08:43:13.465Z,31.60
2019-02-28T08:44:22.750Z,38.65
2019-02-28T08:45:20.941Z,28.38
2019-02-28T08:46:23.611Z,26.23
2019-02-28T08:47:26.191Z,29.12
2019-02-28T08:48:32.403Z,32.53
2019-02-28T08:49:33.386Z,28.00
2019-02-28T08:50:35.925Z,30.92
2019-02-28T08:51:38.552Z,27.85
2019-02-28T08:52:42.272Z,34.08
2019-02-28T08:53:50.818Z,40.40
2019-02-28T08:54:49.498Z,35.23
2019-02-28T08:55:52.071Z,36.25
2019-02-28T08:56:54.820Z,38.08
2019-02-28T08:58:04.775Z,32.08
2019-02-28T08:59:11.397Z,29.75
2019-02-28T09:00:09.959Z,36.48
2019-02-28T09:01:12.524Z,34.33
2019-02-28T09:02:18.271Z,33.60
2019-02-28T09:03:19.811Z,32.60
2019-02-28T09:04:23.596Z,35.35
2019-02-28T09:05:29.940Z,33.70
2019-02-28T09:06:30.628Z,32.67
2019-02-28T09:07:33.240Z,34.78
2019-02-28T09:08:36.025Z,35.70
2019-02-28T09:09:38.631Z,35.25
2019-02-28T09:10:43.623Z,37.80
2019-02-28T09:11:46.027Z,35.45
2019-02-28T09:12:48.909Z,30.57
2019-02-28T09:13:51.563Z,34.65
2019-02-28T09:14:56.280Z,39.65
2019-02-28T09:16:01.942Z,32.17
2019-02-28T09:17:03.882Z,35.33
2019-02-28T09:18:07.356Z,29.67
2019-02-28T09:19:10.106Z,32.42
2019-02-28T09:20:13.590Z,38.48
2019-02-28T09:21:18.402Z,35.35
2019-02-28T09:22:20.985Z,34.60
2019-02-28T09:23:23.721Z,38.92
2019-02-28T09:24:26.740Z,42.88
2019-02-28T09:25:29.404Z,29.07
2019-02-28T09:26:32.353Z,30.27
2019-02-28T09:27:35.392Z,35.70
2019-02-28T09:28:39.498Z,39.40
2019-02-28T09:29:42.021Z,38.23
2019-02-28T09:30:44.844Z,35.45
2019-02-28T09:31:47.478Z,39.27
2019-02-28T09:32:50.047Z,39.92
2019-02-28T09:33:55.429Z,35.55
2019-02-28T09:34:57.186Z,36.90
2019-02-28T09:36:00.181Z,37.83
2019-02-28T09:37:02.723Z,39.33
2019-02-28T09:38:07.634Z,33.23
2019-02-28T09:39:09.863Z,37.13
2019-02-28T09:40:12.959Z,37.78
2019-02-28T09:41:15.497Z,35.68
2019-02-28T09:42:18.176Z,38.45
2019-02-28T09:43:23.906Z,39.08
2019-02-28T09:44:25.190Z,33.53
2019-02-28T09:45:27.847Z,36.65
2019-02-28T09:46:30.398Z,36.35
2019-02-28T09:47:33.221Z,36.35
2019-02-28T09:48:37.234Z,32.60
2019-02-28T09:49:40.564Z,41.10
2019-02-28T09:50:43.568Z,37.45
2019-02-28T09:51:48.209Z,39.23
2019-02-28T09:52:50.981Z,32.15
2019-02-28T09:53:53.708Z,31.12
2019-02-28T09:54:59.208Z,38.92
2019-02-28T09:56:01.098Z,39.60
2019-02-28T09:57:03.813Z,35.90
2019-02-28T09:58:08.280Z,37.85
2019-02-28T09:59:10.845Z,42.83
2019-02-28T10:00:15.986Z,37.88
2019-02-28T10:01:21.300Z,39.55
2019-02-28T10:02:25.101Z,40.90
2019-02-28T10:03:27.863Z,36.25
2019-02-28T10:04:31.294Z,37.90
2019-02-28T10:05:34.126Z,39.38
2019-02-28T10:06:36.970Z,39.55
2019-02-28T10:07:39.514Z,37.70
2019-02-28T10:08:42.053Z,43.70
2019-02-28T10:09:46.837Z,45.38
2019-02-28T10:10:52.409Z,34.43
2019-02-28T10:11:54.098Z,34.05
2019-02-28T10:12:56.968Z,43.63
2019-02-28T10:13:59.777Z,42.27
2019-02-28T10:15:07.283Z,37.98
2019-02-28T10:16:06.918Z,42.10
2019-02-28T10:17:09.633Z,35.85
2019-02-28T10:18:12.324Z,42.03
2019-02-28T10:19:15.995Z,44.83
2019-02-28T10:20:26.338Z,37.35
2019-02-28T10:21:26.616Z,40.55
2019-02-28T10:22:29.152Z,39.53
2019-02-28T10:23:32.135Z,49.93
2019-02-28T10:24:34.660Z,42.62
2019-02-28T10:25:42.075Z,36.83
2019-02-28T10:26:41.899Z,37.42
2019-02-28T10:27:44.820Z,37.67
2019-02-28T10:28:47.345Z,43.85
2019-02-28T10:29:49.867Z,39.33
2019-02-28T10:30:52.528Z,35.17
2019-02-28T10:31:55.183Z,36.58
2019-02-28T10:32:57.985Z,37.00
2019-02-28T10:34:00.518Z,35.33
2019-02-28T10:35:04.430Z,45.90
2019-02-28T10:36:09.346Z,39.95
2019-02-28T10:37:11.438Z,36.95
2019-02-28T10:38:13.950Z,47.03
2019-02-28T10:39:18.280Z,42.58
2019-02-28T10:40:22.322Z,39.73
2019-02-28T10:41:27.998Z,41.10
2019-02-28T10:42:29.812Z,40.78
2019-02-28T10:43:33.659Z,38.42
2019-02-28T10:44:38.014Z,40.85
2019-02-28T10:45:41.989Z,34.73
2019-02-28T10:46:44.946Z,37.95
2019-02-28T10:47:47.727Z,45.38
2019-02-28T10:48:51.112Z,39.35
2019-02-28T10:49:55.429Z,40.05
2019-02-28T10:50:58.471Z,42.53
2019-02-28T10:52:01.473Z,44.58
2019-02-28T10:53:05.962Z,38.20
2019-02-28T10:54:11.253Z,37.08
2019-02-28T10:55:14.911Z,41.00
2019-02-28T10:56:17.682Z,40.85
2019-02-28T10:57:20.536Z,38.25
2019-02-28T10:58:23.201Z,38.65
2019-02-28T10:59:25.945Z,40.80
2019-02-28T11:00:32.907Z,40.30
2019-02-28T11:01:35.293Z,38.60
2019-02-28T11:02:38.143Z,43.70
2019-02-28T11:03:40.729Z,39.58
2019-02-28T11:04:44.024Z,41.70
2019-02-28T11:05:47.134Z,40.40
2019-02-28T11:06:51.943Z,39.63
2019-02-28T11:07:54.530Z,41.42
2019-02-28T11:08:57.285Z,39.38
2019-02-28T11:10:01.939Z,42.62
2019-02-28T11:11:07.309Z,35.92
2019-02-28T11:12:11.158Z,39.18
2019-02-28T11:13:15.886Z,42.58
2019-02-28T11:14:18.959Z,43.95
2019-02-28T11:15:23.918Z,38.65
2019-02-28T11:16:26.438Z,40.78
2019-02-28T11:17:30.426Z,38.98
2019-02-28T11:18:34.184Z,39.83
2019-02-28T11:19:38.493Z,44.18
2019-02-28T11:20:41.475Z,31.23
2019-02-28T11:21:44.127Z,42.43
2019-02-28T11:22:46.744Z,42.75
2019-02-28T11:23:50.212Z,44.77
2019-02-28T11:24:54.102Z,37.28
2019-02-28T11:25:56.956Z,40.65
2019-02-28T11:26:59.541Z,45.20
2019-02-28T11:28:02.320Z,39.58
2019-02-28T11:29:04.873Z,43.40
2019-02-28T11:30:10.123Z,41.40
2019-02-28T11:31:16.306Z,39.48
2019-02-28T11:32:19.147Z,43.45
2019-02-28T11:33:22.895Z,38.10
2019-02-28T11:34:25.654Z,40.12
2019-02-28T11:35:29.414Z,34.92
2019-02-28T11:36:34.127Z,43.92
2019-02-28T11:37:37.245Z,43.28
2019-02-28T11:38:39.953Z,42.95
2019-02-28T11:39:43.919Z,41.23
2019-02-28T11:40:46.972Z,46.95
2019-02-28T11:41:52.723Z,37.80
2019-02-28T11:42:54.148Z,42.85
2019-02-28T11:43:56.719Z,45.50
2019-02-28T11:44:59.530Z,41.83
2019-02-28T11:46:03.134Z,46.15
2019-02-28T11:47:08.355Z,42.48
2019-02-28T11:48:12.728Z,40.03
2019-02-28T11:49:15.089Z,37.50
2019-02-28T11:50:18.061Z,40.52
2019-02-28T11:51:20.608Z,48.83
2019-02-28T11:52:24.497Z,43.75
2019-02-28T11:53:27.959Z,37.70
2019-02-28T11:54:30.672Z,46.37
2019-02-28T11:55:33.283Z,50.28
2019-02-28T11:56:35.979Z,48.17
2019-02-28T11:57:41.250Z,39.18
2019-02-28T11:58:43.219Z,45.85
2019-02-28T11:59:45.820Z,43.28
2019-02-28T12:00:48.576Z,36.42
2019-02-28T12:01:51.258Z,48.33
2019-02-28T12:02:59.765Z,37.40
2019-02-28T12:03:58.337Z,42.38
2019-02-28T12:05:00.865Z,40.45
2019-02-28T12:06:03.521Z,43.17
2019-02-28T12:07:07.875Z,39.95
2019-02-28T12:08:12.345Z,42.48
2019-02-28T12:09:16.273Z,38.88
2019-02-28T12:10:19.991Z,43.78
2019-02-28T12:11:25.148Z,43.87
2019-02-28T12:12:28.889Z,47.15
2019-02-28T12:13:33.259Z,38.45
2019-02-28T12:14:35.952Z,43.28
2019-02-28T12:15:39.157Z,32.73
2019-02-28T12:16:42.183Z,48.42
2019-02-28T12:17:44.770Z,42.48
2019-02-28T12:18:47.429Z,50.20
2019-02-28T12:19:50.686Z,46.02
2019-02-28T12:20:54.214Z,39.42
2019-02-28T12:21:56.816Z,39.45
2019-02-28T12:22:59.347Z,38.88
2019-02-28T12:24:02.018Z,37.95
2019-02-28T12:25:07.638Z,36.38
2019-02-28T12:26:14.421Z,43.83
2019-02-28T12:27:16.645Z,42.00
2019-02-28T12:28:19.693Z,41.63
2019-02-28T12:29:22.329Z,42.90
2019-02-28T12:30:26.193Z,47.60
2019-02-28T12:31:32.136Z,37.55
2019-02-28T12:32:35.118Z,38.30
2019-02-28T12:33:39.703Z,35.78
2019-02-28T12:34:43.523Z,40.63
2019-02-28T12:35:46.402Z,36.42
2019-02-28T12:36:50.256Z,41.77
2019-02-28T12:37:53.970Z,38.33
2019-02-28T12:38:59.398Z,43.02
2019-02-28T12:40:01.935Z,45.50
2019-02-28T12:41:04.692Z,45.23
2019-02-28T12:42:07.294Z,43.80
2019-02-28T12:43:09.894Z,43.85
2019-02-28T12:44:15.412Z,45.63
2019-02-28T12:45:28.757Z,33.38
2019-02-28T12:46:32.778Z,42.98
2019-02-28T12:47:38.667Z,41.92
2019-02-28T12:48:41.991Z,37.93
2019-02-28T12:49:44.689Z,35.63
2019-02-28T12:50:47.346Z,36.58
2019-02-28T12:51:51.648Z,41.20
2019-02-28T12:52:54.178Z,38.58
2019-02-28T12:53:59.236Z,43.20
2019-02-28T12:55:03.981Z,30.65
2019-02-28T12:56:06.184Z,47.88
2019-02-28T12:57:08.785Z,43.08
2019-02-28T12:58:11.566Z,45.95
2019-02-28T12:59:14.240Z,45.95
2019-02-28T13:00:28.612Z,44.20
2019-02-28T13:01:33.180Z,45.15
2019-02-28T13:02:36.073Z,39.88
2019-02-28T13:03:38.898Z,43.35
2019-02-28T13:04:43.365Z,38.55
2019-02-28T13:05:48.015Z,38.30
2019-02-28T13:06:50.689Z,40.58
2019-02-28T13:07:53.237Z,43.58
2019-02-28T13:08:55.769Z,36.42
2019-02-28T13:10:00.336Z,43.60
2019-02-28T13:11:04.664Z,41.18
2019-02-28T13:12:08.643Z,45.20
2019-02-28T13:13:12.103Z,40.30
2019-02-28T13:14:14.793Z,37.25
2019-02-28T13:15:17.672Z,45.38
2019-02-28T13:16:21.396Z,46.60
2019-02-28T13:17:24.262Z,36.60
2019-02-28T13:18:28.570Z,38.90
2019-02-28T13:19:31.406Z,35.17
2019-02-28T13:20:36.262Z,37.15
2019-02-28T13:21:38.751Z,39.55
2019-02-28T13:22:41.662Z,40.70
2019-02-28T13:23:44.315Z,35.70
2019-02-28T13:24:47.628Z,36.38
2019-02-28T13:25:50.430Z,38.10
2019-02-28T13:26:53.233Z,35.60
2019-02-28T13:27:55.904Z,42.38
2019-02-28T13:28:58.452Z,50.03
2019-02-28T13:30:01.169Z,34.92
2019-02-28T13:31:04.463Z,41.13
2019-02-28T13:32:07.280Z,38.00
2019-02-28T13:33:10.922Z,35.28
2019-02-28T13:34:15.560Z,37.17
2019-02-28T13:35:20.613Z,41.13
2019-02-28T13:36:25.957Z,39.55
2019-02-28T13:37:28.472Z,33.42
2019-02-28T13:38:31.372Z,30.55